sensor_id;sensor_type;location;lat;lon;timestamp;P1;durP1;ratioP1;P2;durP2;ratioP2
73023;SDS011;61199;47.526;8.538;2023-05-02T00:00:41;8.10;;;4.43;;
73023;SDS011;61199;47.526;8.538;2023-05-02T00:03:08;8.93;;;4.10;;
73023;SDS011;61199;47.526;8.538;2023-05-02T00:05:35;8.87;;;4.50;;
73023;SDS011;61199;47.526;8.538;2023-05-02T00:08:01;8.47;;;4.37;;
73023;SDS011;61199;47.526;8.538;2023-05-02T00:10:28;5.70;;;3.93;;
73023;SDS011;61199;47.526;8.538;2023-05-02T00:12:54;7.03;;;4.33;;
73023;SDS011;61199;47.526;8.538;2023-05-02T00:15:21;7.27;;;4.40;;
73023;SDS011;61199;47.526;8.538;2023-05-02T00:17:48;5.73;;;4.10;;
73023;SDS011;61199;47.526;8.538;2023-05-02T00:20:14;6.00;;;4.10;;
73023;SDS011;61199;47.526;8.538;2023-05-02T00:22:41;5.60;;;4.63;;
73023;SDS011;61199;47.526;8.538;2023-05-02T00:25:08;6.90;;;4.23;;
73023;SDS011;61199;47.526;8.538;2023-05-02T00:27:35;7.60;;;4.00;;
73023;SDS011;61199;47.526;8.538;2023-05-02T00:30:01;7.13;;;4.53;;
73023;SDS011;61199;47.526;8.538;2023-05-02T00:32:31;6.63;;;4.40;;
73023;SDS011;61199;47.526;8.538;2023-05-02T00:34:57;7.53;;;5.33;;
73023;SDS011;61199;47.526;8.538;2023-05-02T00:37:27;7.33;;;5.17;;
73023;SDS011;61199;47.526;8.538;2023-05-02T00:39:56;7.80;;;5.03;;
73023;SDS011;61199;47.526;8.538;2023-05-02T00:42:23;9.87;;;5.57;;
73023;SDS011;61199;47.526;8.538;2023-05-02T00:44:50;8.73;;;5.50;;
73023;SDS011;61199;47.526;8.538;2023-05-02T00:47:16;8.27;;;5.37;;
73023;SDS011;61199;47.526;8.538;2023-05-02T00:49:43;8.70;;;4.70;;
73023;SDS011;61199;47.526;8.538;2023-05-02T00:52:09;7.50;;;5.10;;
73023;SDS011;61199;47.526;8.538;2023-05-02T00:54:36;11.10;;;4.67;;
73023;SDS011;61199;47.526;8.538;2023-05-02T00:57:04;6.50;;;4.40;;
73023;SDS011;61199;47.526;8.538;2023-05-02T00:59:32;6.60;;;5.17;;
73023;SDS011;61199;47.526;8.538;2023-05-02T01:02:18;8.40;;;4.97;;
73023;SDS011;61199;47.526;8.538;2023-05-02T01:05:08;9.40;;;5.13;;
73023;SDS011;61199;47.526;8.538;2023-05-02T01:07:50;7.20;;;4.70;;
73023;SDS011;61199;47.526;8.538;2023-05-02T01:13:21;7.00;;;4.90;;
73023;SDS011;61199;47.526;8.538;2023-05-02T01:15:52;9.27;;;5.20;;
73023;SDS011;61199;47.526;8.538;2023-05-02T01:18:22;8.23;;;5.27;;
73023;SDS011;61199;47.526;8.538;2023-05-02T01:21:03;12.27;;;5.27;;
73023;SDS011;61199;47.526;8.538;2023-05-02T01:23:51;9.50;;;4.83;;
73023;SDS011;61199;47.526;8.538;2023-05-02T01:26:29;6.80;;;5.27;;
73023;SDS011;61199;47.526;8.538;2023-05-02T01:29:13;8.67;;;4.70;;
73023;SDS011;61199;47.526;8.538;2023-05-02T01:31:41;7.70;;;4.53;;
73023;SDS011;61199;47.526;8.538;2023-05-02T01:34:11;10.90;;;5.07;;
73023;SDS011;61199;47.526;8.538;2023-05-02T01:36:42;10.87;;;4.63;;
73023;SDS011;61199;47.526;8.538;2023-05-02T01:39:21;8.10;;;5.30;;
73023;SDS011;61199;47.526;8.538;2023-05-02T01:41:49;9.10;;;4.77;;
73023;SDS011;61199;47.526;8.538;2023-05-02T01:44:21;6.83;;;4.60;;
73023;SDS011;61199;47.526;8.538;2023-05-02T01:46:49;6.57;;;4.83;;
73023;SDS011;61199;47.526;8.538;2023-05-02T01:49:18;5.23;;;3.73;;
73023;SDS011;61199;47.526;8.538;2023-05-02T01:51:46;7.03;;;4.80;;
73023;SDS011;61199;47.526;8.538;2023-05-02T01:54:15;10.43;;;4.60;;
73023;SDS011;61199;47.526;8.538;2023-05-02T01:56:43;7.20;;;4.37;;
73023;SDS011;61199;47.526;8.538;2023-05-02T01:59:11;9.43;;;4.53;;
73023;SDS011;61199;47.526;8.538;2023-05-02T02:01:40;5.17;;;3.70;;
73023;SDS011;61199;47.526;8.538;2023-05-02T02:04:09;4.53;;;3.70;;
73023;SDS011;61199;47.526;8.538;2023-05-02T02:06:37;7.53;;;3.63;;
73023;SDS011;61199;47.526;8.538;2023-05-02T02:09:05;6.80;;;3.50;;
73023;SDS011;61199;47.526;8.538;2023-05-02T02:11:43;8.57;;;3.67;;
73023;SDS011;61199;47.526;8.538;2023-05-02T02:14:18;5.40;;;4.17;;
73023;SDS011;61199;47.526;8.538;2023-05-02T02:16:47;8.47;;;3.50;;
73023;SDS011;61199;47.526;8.538;2023-05-02T02:19:18;3.50;;;3.10;;
73023;SDS011;61199;47.526;8.538;2023-05-02T02:21:46;4.30;;;3.50;;
73023;SDS011;61199;47.526;8.538;2023-05-02T02:24:15;5.60;;;3.60;;
73023;SDS011;61199;47.526;8.538;2023-05-02T02:26:43;4.83;;;3.60;;
73023;SDS011;61199;47.526;8.538;2023-05-02T02:29:11;6.33;;;3.50;;
73023;SDS011;61199;47.526;8.538;2023-05-02T02:31:38;5.60;;;4.40;;
73023;SDS011;61199;47.526;8.538;2023-05-02T02:34:04;5.80;;;3.83;;
73023;SDS011;61199;47.526;8.538;2023-05-02T02:36:39;5.80;;;3.90;;
73023;SDS011;61199;47.526;8.538;2023-05-02T02:45:16;4.57;;;3.30;;
73023;SDS011;61199;47.526;8.538;2023-05-02T02:48:34;6.30;;;3.67;;
73023;SDS011;61199;47.526;8.538;2023-05-02T02:54:30;6.30;;;4.80;;
73023;SDS011;61199;47.526;8.538;2023-05-02T02:56:56;4.30;;;3.50;;
73023;SDS011;61199;47.526;8.538;2023-05-02T02:59:39;6.40;;;3.20;;
73023;SDS011;61199;47.526;8.538;2023-05-02T03:02:12;5.53;;;3.30;;
73023;SDS011;61199;47.526;8.538;2023-05-02T03:04:42;4.73;;;3.80;;
73023;SDS011;61199;47.526;8.538;2023-05-02T03:07:11;4.93;;;4.03;;
73023;SDS011;61199;47.526;8.538;2023-05-02T03:09:42;7.33;;;4.20;;
73023;SDS011;61199;47.526;8.538;2023-05-02T03:12:09;5.77;;;3.70;;
73023;SDS011;61199;47.526;8.538;2023-05-02T03:14:36;3.53;;;3.40;;
73023;SDS011;61199;47.526;8.538;2023-05-02T03:17:03;5.50;;;3.97;;
73023;SDS011;61199;47.526;8.538;2023-05-02T03:19:30;4.90;;;3.73;;
73023;SDS011;61199;47.526;8.538;2023-05-02T03:21:56;5.13;;;3.97;;
73023;SDS011;61199;47.526;8.538;2023-05-02T03:24:23;5.93;;;4.10;;
73023;SDS011;61199;47.526;8.538;2023-05-02T03:26:49;6.17;;;3.93;;
73023;SDS011;61199;47.526;8.538;2023-05-02T03:29:20;8.03;;;4.70;;
73023;SDS011;61199;47.526;8.538;2023-05-02T03:31:47;6.60;;;4.00;;
73023;SDS011;61199;47.526;8.538;2023-05-02T03:34:13;6.10;;;4.50;;
73023;SDS011;61199;47.526;8.538;2023-05-02T03:36:39;4.97;;;3.93;;
73023;SDS011;61199;47.526;8.538;2023-05-02T03:39:06;5.07;;;3.90;;
73023;SDS011;61199;47.526;8.538;2023-05-02T03:41:33;6.13;;;4.53;;
73023;SDS011;61199;47.526;8.538;2023-05-02T03:43:59;9.80;;;4.37;;
73023;SDS011;61199;47.526;8.538;2023-05-02T03:46:25;5.67;;;4.10;;
73023;SDS011;61199;47.526;8.538;2023-05-02T03:48:52;5.10;;;3.67;;
73023;SDS011;61199;47.526;8.538;2023-05-02T03:51:18;5.97;;;4.00;;
73023;SDS011;61199;47.526;8.538;2023-05-02T03:53:45;5.10;;;4.00;;
73023;SDS011;61199;47.526;8.538;2023-05-02T03:56:11;6.03;;;4.47;;
73023;SDS011;61199;47.526;8.538;2023-05-02T03:58:45;4.90;;;4.23;;
73023;SDS011;61199;47.526;8.538;2023-05-02T04:01:15;6.20;;;4.20;;
73023;SDS011;61199;47.526;8.538;2023-05-02T04:03:44;8.97;;;4.40;;
73023;SDS011;61199;47.526;8.538;2023-05-02T04:06:10;6.70;;;4.37;;
73023;SDS011;61199;47.526;8.538;2023-05-02T04:08:38;6.77;;;4.73;;
73023;SDS011;61199;47.526;8.538;2023-05-02T04:11:04;6.57;;;4.70;;
73023;SDS011;61199;47.526;8.538;2023-05-02T04:13:31;5.47;;;3.77;;
73023;SDS011;61199;47.526;8.538;2023-05-02T04:15:57;4.57;;;3.90;;
73023;SDS011;61199;47.526;8.538;2023-05-02T04:18:24;7.93;;;4.80;;
73023;SDS011;61199;47.526;8.538;2023-05-02T04:20:50;6.10;;;4.77;;
73023;SDS011;61199;47.526;8.538;2023-05-02T04:23:17;7.50;;;4.77;;
73023;SDS011;61199;47.526;8.538;2023-05-02T04:25:50;6.47;;;3.90;;
73023;SDS011;61199;47.526;8.538;2023-05-02T04:28:20;10.60;;;4.93;;
73023;SDS011;61199;47.526;8.538;2023-05-02T04:30:47;6.50;;;4.77;;
73023;SDS011;61199;47.526;8.538;2023-05-02T04:33:15;7.50;;;4.30;;
73023;SDS011;61199;47.526;8.538;2023-05-02T04:35:43;9.80;;;4.07;;
73023;SDS011;61199;47.526;8.538;2023-05-02T04:38:09;6.73;;;4.63;;
73023;SDS011;61199;47.526;8.538;2023-05-02T04:40:36;5.63;;;4.20;;
73023;SDS011;61199;47.526;8.538;2023-05-02T04:43:02;6.10;;;4.10;;
73023;SDS011;61199;47.526;8.538;2023-05-02T04:45:28;4.90;;;4.00;;
73023;SDS011;61199;47.526;8.538;2023-05-02T04:47:55;7.30;;;4.70;;
73023;SDS011;61199;47.526;8.538;2023-05-02T04:50:21;6.50;;;4.50;;
73023;SDS011;61199;47.526;8.538;2023-05-02T04:52:48;5.07;;;4.27;;
73023;SDS011;61199;47.526;8.538;2023-05-02T04:55:15;6.70;;;4.50;;
73023;SDS011;61199;47.526;8.538;2023-05-02T04:57:41;6.80;;;4.73;;
73023;SDS011;61199;47.526;8.538;2023-05-02T05:00:07;10.43;;;4.70;;
73023;SDS011;61199;47.526;8.538;2023-05-02T05:02:34;9.57;;;4.97;;
73023;SDS011;61199;47.526;8.538;2023-05-02T05:05:01;11.60;;;5.23;;
73023;SDS011;61199;47.526;8.538;2023-05-02T05:07:27;8.23;;;5.50;;
73023;SDS011;61199;47.526;8.538;2023-05-02T05:09:54;11.27;;;5.00;;
73023;SDS011;61199;47.526;8.538;2023-05-02T05:12:20;6.67;;;4.80;;
73023;SDS011;61199;47.526;8.538;2023-05-02T05:14:46;8.90;;;5.70;;
73023;SDS011;61199;47.526;8.538;2023-05-02T05:17:13;17.17;;;4.90;;
73023;SDS011;61199;47.526;8.538;2023-05-02T05:19:39;10.03;;;4.73;;
73023;SDS011;61199;47.526;8.538;2023-05-02T05:22:06;11.03;;;5.60;;
73023;SDS011;61199;47.526;8.538;2023-05-02T05:24:33;13.03;;;5.17;;
73023;SDS011;61199;47.526;8.538;2023-05-02T05:26:59;14.13;;;6.27;;
73023;SDS011;61199;47.526;8.538;2023-05-02T05:29:26;8.67;;;5.10;;
73023;SDS011;61199;47.526;8.538;2023-05-02T05:31:52;13.80;;;5.50;;
73023;SDS011;61199;47.526;8.538;2023-05-02T05:34:18;8.57;;;5.70;;
73023;SDS011;61199;47.526;8.538;2023-05-02T05:36:45;9.73;;;4.80;;
73023;SDS011;61199;47.526;8.538;2023-05-02T05:39:11;8.23;;;5.73;;
73023;SDS011;61199;47.526;8.538;2023-05-02T05:41:38;9.83;;;5.83;;
73023;SDS011;61199;47.526;8.538;2023-05-02T05:44:04;14.03;;;6.47;;
73023;SDS011;61199;47.526;8.538;2023-05-02T05:46:30;8.10;;;5.70;;
73023;SDS011;61199;47.526;8.538;2023-05-02T05:48:57;15.70;;;5.83;;
73023;SDS011;61199;47.526;8.538;2023-05-02T05:51:23;11.90;;;6.90;;
73023;SDS011;61199;47.526;8.538;2023-05-02T05:53:49;9.67;;;6.37;;
73023;SDS011;61199;47.526;8.538;2023-05-02T05:56:16;9.10;;;5.10;;
73023;SDS011;61199;47.526;8.538;2023-05-02T05:58:43;6.60;;;5.17;;
73023;SDS011;61199;47.526;8.538;2023-05-02T06:01:09;7.50;;;5.43;;
73023;SDS011;61199;47.526;8.538;2023-05-02T06:03:36;7.70;;;5.90;;
73023;SDS011;61199;47.526;8.538;2023-05-02T06:06:03;8.30;;;5.53;;
73023;SDS011;61199;47.526;8.538;2023-05-02T06:08:30;16.40;;;8.57;;
73023;SDS011;61199;47.526;8.538;2023-05-02T06:10:56;8.67;;;5.40;;
73023;SDS011;61199;47.526;8.538;2023-05-02T06:13:22;10.27;;;5.73;;
73023;SDS011;61199;47.526;8.538;2023-05-02T06:15:49;12.60;;;6.20;;
73023;SDS011;61199;47.526;8.538;2023-05-02T06:18:15;10.63;;;6.90;;
73023;SDS011;61199;47.526;8.538;2023-05-02T06:20:42;9.77;;;6.97;;
73023;SDS011;61199;47.526;8.538;2023-05-02T06:23:08;11.03;;;7.10;;
73023;SDS011;61199;47.526;8.538;2023-05-02T06:25:37;11.70;;;6.70;;
73023;SDS011;61199;47.526;8.538;2023-05-02T06:28:04;8.80;;;5.63;;
73023;SDS011;61199;47.526;8.538;2023-05-02T06:30:31;12.73;;;7.67;;
73023;SDS011;61199;47.526;8.538;2023-05-02T06:32:57;10.13;;;6.80;;
73023;SDS011;61199;47.526;8.538;2023-05-02T06:35:24;11.43;;;6.73;;
73023;SDS011;61199;47.526;8.538;2023-05-02T06:37:50;9.97;;;6.97;;
73023;SDS011;61199;47.526;8.538;2023-05-02T06:40:16;11.90;;;8.67;;
73023;SDS011;61199;47.526;8.538;2023-05-02T06:42:43;15.57;;;9.00;;
73023;SDS011;61199;47.526;8.538;2023-05-02T06:45:09;12.67;;;8.20;;
73023;SDS011;61199;47.526;8.538;2023-05-02T06:47:36;21.60;;;9.53;;
73023;SDS011;61199;47.526;8.538;2023-05-02T06:50:02;11.77;;;7.80;;
73023;SDS011;61199;47.526;8.538;2023-05-02T06:52:29;14.53;;;8.93;;
73023;SDS011;61199;47.526;8.538;2023-05-02T06:54:56;18.50;;;9.13;;
73023;SDS011;61199;47.526;8.538;2023-05-02T06:57:23;15.23;;;9.27;;
73023;SDS011;61199;47.526;8.538;2023-05-02T06:59:50;14.27;;;9.50;;
73023;SDS011;61199;47.526;8.538;2023-05-02T07:02:16;13.00;;;9.30;;
73023;SDS011;61199;47.526;8.538;2023-05-02T07:04:42;15.70;;;10.40;;
73023;SDS011;61199;47.526;8.538;2023-05-02T07:07:09;13.97;;;10.07;;
73023;SDS011;61199;47.526;8.538;2023-05-02T07:09:35;21.27;;;9.83;;
73023;SDS011;61199;47.526;8.538;2023-05-02T07:12:02;14.53;;;9.27;;
73023;SDS011;61199;47.526;8.538;2023-05-02T07:14:31;12.93;;;8.87;;
73023;SDS011;61199;47.526;8.538;2023-05-02T07:16:58;11.87;;;9.03;;
73023;SDS011;61199;47.526;8.538;2023-05-02T07:19:24;15.07;;;9.80;;
73023;SDS011;61199;47.526;8.538;2023-05-02T07:21:51;15.20;;;9.97;;
73023;SDS011;61199;47.526;8.538;2023-05-02T07:24:17;13.53;;;9.67;;
73023;SDS011;61199;47.526;8.538;2023-05-02T07:26:44;18.67;;;11.17;;
73023;SDS011;61199;47.526;8.538;2023-05-02T07:29:10;16.67;;;10.27;;
73023;SDS011;61199;47.526;8.538;2023-05-02T07:31:37;14.37;;;10.03;;
73023;SDS011;61199;47.526;8.538;2023-05-02T07:34:04;18.10;;;11.00;;
73023;SDS011;61199;47.526;8.538;2023-05-02T07:36:30;16.20;;;11.13;;
73023;SDS011;61199;47.526;8.538;2023-05-02T07:38:57;19.10;;;11.10;;
73023;SDS011;61199;47.526;8.538;2023-05-02T07:41:24;15.50;;;10.33;;
73023;SDS011;61199;47.526;8.538;2023-05-02T07:43:50;16.90;;;11.93;;
73023;SDS011;61199;47.526;8.538;2023-05-02T07:46:16;14.90;;;10.50;;
73023;SDS011;61199;47.526;8.538;2023-05-02T07:48:43;14.60;;;10.60;;
73023;SDS011;61199;47.526;8.538;2023-05-02T07:51:09;17.27;;;11.47;;
73023;SDS011;61199;47.526;8.538;2023-05-02T07:53:36;14.57;;;9.50;;
73023;SDS011;61199;47.526;8.538;2023-05-02T07:56:02;15.70;;;9.87;;
73023;SDS011;61199;47.526;8.538;2023-05-02T07:58:31;16.10;;;9.43;;
73023;SDS011;61199;47.526;8.538;2023-05-02T08:00:58;12.83;;;9.43;;
73023;SDS011;61199;47.526;8.538;2023-05-02T08:03:24;15.33;;;9.43;;
73023;SDS011;61199;47.526;8.538;2023-05-02T08:05:51;13.00;;;9.83;;
73023;SDS011;61199;47.526;8.538;2023-05-02T08:08:17;14.57;;;8.87;;
73023;SDS011;61199;47.526;8.538;2023-05-02T08:10:44;17.07;;;9.57;;
73023;SDS011;61199;47.526;8.538;2023-05-02T08:13:11;16.60;;;9.53;;
73023;SDS011;61199;47.526;8.538;2023-05-02T08:15:37;15.53;;;8.90;;
73023;SDS011;61199;47.526;8.538;2023-05-02T08:18:04;13.57;;;9.37;;
73023;SDS011;61199;47.526;8.538;2023-05-02T08:20:30;13.40;;;9.17;;
73023;SDS011;61199;47.526;8.538;2023-05-02T08:22:57;14.03;;;9.33;;
73023;SDS011;61199;47.526;8.538;2023-05-02T08:25:25;15.60;;;8.90;;
73023;SDS011;61199;47.526;8.538;2023-05-02T08:27:51;11.17;;;8.83;;
73023;SDS011;61199;47.526;8.538;2023-05-02T08:30:18;15.23;;;7.57;;
73023;SDS011;61199;47.526;8.538;2023-05-02T08:32:44;17.57;;;8.07;;
73023;SDS011;61199;47.526;8.538;2023-05-02T08:35:11;12.00;;;8.77;;
73023;SDS011;61199;47.526;8.538;2023-05-02T08:37:38;16.17;;;8.20;;
73023;SDS011;61199;47.526;8.538;2023-05-02T08:40:04;11.00;;;8.47;;
73023;SDS011;61199;47.526;8.538;2023-05-02T08:42:36;11.20;;;8.77;;
73023;SDS011;61199;47.526;8.538;2023-05-02T08:45:07;14.17;;;7.80;;
73023;SDS011;61199;47.526;8.538;2023-05-02T08:47:33;12.40;;;9.43;;
73023;SDS011;61199;47.526;8.538;2023-05-02T08:50:01;11.80;;;8.30;;
73023;SDS011;61199;47.526;8.538;2023-05-02T08:52:29;11.57;;;8.87;;
73023;SDS011;61199;47.526;8.538;2023-05-02T08:54:58;13.37;;;8.87;;
73023;SDS011;61199;47.526;8.538;2023-05-02T08:57:27;19.80;;;7.50;;
73023;SDS011;61199;47.526;8.538;2023-05-02T08:59:54;12.20;;;7.80;;
73023;SDS011;61199;47.526;8.538;2023-05-02T09:02:23;10.10;;;7.77;;
73023;SDS011;61199;47.526;8.538;2023-05-02T09:05:10;12.20;;;7.83;;
73023;SDS011;61199;47.526;8.538;2023-05-02T09:07:47;10.40;;;7.40;;
73023;SDS011;61199;47.526;8.538;2023-05-02T09:10:14;9.17;;;7.00;;
73023;SDS011;61199;47.526;8.538;2023-05-02T09:12:40;9.63;;;7.67;;
73023;SDS011;61199;47.526;8.538;2023-05-02T09:15:07;10.83;;;7.97;;
73023;SDS011;61199;47.526;8.538;2023-05-02T09:17:39;8.70;;;6.93;;
73023;SDS011;61199;47.526;8.538;2023-05-02T09:20:13;8.70;;;6.90;;
73023;SDS011;61199;47.526;8.538;2023-05-02T09:22:50;9.37;;;6.37;;
73023;SDS011;61199;47.526;8.538;2023-05-02T09:25:20;9.80;;;7.20;;
73023;SDS011;61199;47.526;8.538;2023-05-02T09:27:48;12.00;;;7.90;;
73023;SDS011;61199;47.526;8.538;2023-05-02T09:30:20;9.30;;;7.13;;
73023;SDS011;61199;47.526;8.538;2023-05-02T09:32:51;10.10;;;7.37;;
73023;SDS011;61199;47.526;8.538;2023-05-02T09:35:20;12.20;;;6.93;;
73023;SDS011;61199;47.526;8.538;2023-05-02T09:37:58;10.43;;;7.17;;
73023;SDS011;61199;47.526;8.538;2023-05-02T09:40:25;10.30;;;7.07;;
73023;SDS011;61199;47.526;8.538;2023-05-02T09:42:53;9.30;;;6.67;;
73023;SDS011;61199;47.526;8.538;2023-05-02T09:45:23;7.83;;;5.97;;
73023;SDS011;61199;47.526;8.538;2023-05-02T09:47:51;11.13;;;6.97;;
73023;SDS011;61199;47.526;8.538;2023-05-02T09:50:34;13.60;;;7.63;;
73023;SDS011;61199;47.526;8.538;2023-05-02T09:53:02;8.47;;;6.60;;
73023;SDS011;61199;47.526;8.538;2023-05-02T09:55:30;10.90;;;6.40;;
73023;SDS011;61199;47.526;8.538;2023-05-02T09:57:57;11.63;;;6.13;;
73023;SDS011;61199;47.526;8.538;2023-05-02T10:00:37;11.90;;;6.00;;
73023;SDS011;61199;47.526;8.538;2023-05-02T10:03:10;9.37;;;5.80;;
73023;SDS011;61199;47.526;8.538;2023-05-02T10:05:43;8.93;;;5.90;;
73023;SDS011;61199;47.526;8.538;2023-05-02T10:08:12;15.37;;;5.93;;
73023;SDS011;61199;47.526;8.538;2023-05-02T10:10:43;8.77;;;6.20;;
73023;SDS011;61199;47.526;8.538;2023-05-02T10:13:12;8.77;;;6.00;;
73023;SDS011;61199;47.526;8.538;2023-05-02T10:15:41;6.90;;;5.37;;
73023;SDS011;61199;47.526;8.538;2023-05-02T10:18:13;10.43;;;6.40;;
73023;SDS011;61199;47.526;8.538;2023-05-02T10:20:46;13.70;;;5.40;;
73023;SDS011;61199;47.526;8.538;2023-05-02T10:23:20;6.27;;;5.23;;
73023;SDS011;61199;47.526;8.538;2023-05-02T10:25:50;9.00;;;5.57;;
73023;SDS011;61199;47.526;8.538;2023-05-02T10:28:17;9.27;;;5.70;;
73023;SDS011;61199;47.526;8.538;2023-05-02T10:30:43;7.43;;;5.50;;
73023;SDS011;61199;47.526;8.538;2023-05-02T10:33:12;12.83;;;6.40;;
73023;SDS011;61199;47.526;8.538;2023-05-02T10:35:42;8.27;;;5.40;;
73023;SDS011;61199;47.526;8.538;2023-05-02T10:38:09;6.87;;;4.80;;
73023;SDS011;61199;47.526;8.538;2023-05-02T10:40:37;5.50;;;4.27;;
73023;SDS011;61199;47.526;8.538;2023-05-02T10:43:05;6.93;;;4.57;;
73023;SDS011;61199;47.526;8.538;2023-05-02T10:45:33;6.80;;;5.10;;
73023;SDS011;61199;47.526;8.538;2023-05-02T10:50:51;13.33;;;5.53;;
73023;SDS011;61199;47.526;8.538;2023-05-02T10:53:28;7.80;;;6.13;;
73023;SDS011;61199;47.526;8.538;2023-05-02T10:58:39;9.50;;;5.07;;
73023;SDS011;61199;47.526;8.538;2023-05-02T11:04:12;7.30;;;5.17;;
73023;SDS011;61199;47.526;8.538;2023-05-02T11:09:30;9.00;;;4.93;;
73023;SDS011;61199;47.526;8.538;2023-05-02T11:11:58;6.50;;;5.03;;
73023;SDS011;61199;47.526;8.538;2023-05-02T11:19:24;7.43;;;4.97;;
73023;SDS011;61199;47.526;8.538;2023-05-02T11:21:53;12.77;;;4.80;;
73023;SDS011;61199;47.526;8.538;2023-05-02T11:24:49;6.33;;;4.60;;
73023;SDS011;61199;47.526;8.538;2023-05-02T11:29:56;7.97;;;4.97;;
73023;SDS011;61199;47.526;8.538;2023-05-02T11:32:22;7.73;;;4.10;;
73023;SDS011;61199;47.526;8.538;2023-05-02T11:34:52;10.20;;;4.27;;
73023;SDS011;61199;47.526;8.538;2023-05-02T11:37:20;4.63;;;3.87;;
73023;SDS011;61199;47.526;8.538;2023-05-02T11:39:47;9.47;;;4.40;;
73023;SDS011;61199;47.526;8.538;2023-05-02T11:42:29;8.03;;;4.10;;
73023;SDS011;61199;47.526;8.538;2023-05-02T11:44:59;8.40;;;4.23;;
73023;SDS011;61199;47.526;8.538;2023-05-02T11:47:26;7.37;;;4.10;;
73023;SDS011;61199;47.526;8.538;2023-05-02T11:49:54;10.37;;;4.70;;
73023;SDS011;61199;47.526;8.538;2023-05-02T11:52:21;6.30;;;3.80;;
73023;SDS011;61199;47.526;8.538;2023-05-02T11:54:48;10.57;;;4.30;;
73023;SDS011;61199;47.526;8.538;2023-05-02T11:57:18;7.00;;;4.50;;
73023;SDS011;61199;47.526;8.538;2023-05-02T12:00:03;5.60;;;4.30;;
73023;SDS011;61199;47.526;8.538;2023-05-02T12:05:03;5.80;;;3.97;;
73023;SDS011;61199;47.526;8.538;2023-05-02T12:07:34;10.17;;;5.30;;
73023;SDS011;61199;47.526;8.538;2023-05-02T12:10:00;6.20;;;4.13;;
73023;SDS011;61199;47.526;8.538;2023-05-02T12:12:27;6.63;;;5.33;;
73023;SDS011;61199;47.526;8.538;2023-05-02T12:14:53;13.60;;;5.37;;
73023;SDS011;61199;47.526;8.538;2023-05-02T12:17:20;10.57;;;5.53;;
73023;SDS011;61199;47.526;8.538;2023-05-02T12:19:47;9.43;;;5.53;;
73023;SDS011;61199;47.526;8.538;2023-05-02T12:22:14;6.30;;;5.27;;
73023;SDS011;61199;47.526;8.538;2023-05-02T12:24:42;5.33;;;4.10;;
73023;SDS011;61199;47.526;8.538;2023-05-02T12:27:10;8.80;;;4.20;;
73023;SDS011;61199;47.526;8.538;2023-05-02T12:29:44;3.87;;;2.67;;
73023;SDS011;61199;47.526;8.538;2023-05-02T12:32:13;4.40;;;2.80;;
73023;SDS011;61199;47.526;8.538;2023-05-02T12:34:44;4.90;;;2.23;;
73023;SDS011;61199;47.526;8.538;2023-05-02T12:37:10;4.30;;;2.20;;
73023;SDS011;61199;47.526;8.538;2023-05-02T12:39:38;2.60;;;2.00;;
73023;SDS011;61199;47.526;8.538;2023-05-02T12:42:10;2.93;;;2.33;;
73023;SDS011;61199;47.526;8.538;2023-05-02T12:44:38;3.27;;;2.50;;
73023;SDS011;61199;47.526;8.538;2023-05-02T12:47:06;3.97;;;2.80;;
73023;SDS011;61199;47.526;8.538;2023-05-02T12:49:49;2.90;;;2.60;;
73023;SDS011;61199;47.526;8.538;2023-05-02T12:52:17;4.20;;;3.17;;
73023;SDS011;61199;47.526;8.538;2023-05-02T12:54:44;6.57;;;3.10;;
73023;SDS011;61199;47.526;8.538;2023-05-02T12:57:21;8.20;;;3.70;;
73023;SDS011;61199;47.526;8.538;2023-05-02T12:59:52;3.70;;;3.10;;
73023;SDS011;61199;47.526;8.538;2023-05-02T13:02:19;9.10;;;3.20;;
73023;SDS011;61199;47.526;8.538;2023-05-02T13:04:46;5.53;;;3.50;;
73023;SDS011;61199;47.526;8.538;2023-05-02T13:07:12;3.30;;;2.80;;
73023;SDS011;61199;47.526;8.538;2023-05-02T13:09:39;3.57;;;2.77;;
73023;SDS011;61199;47.526;8.538;2023-05-02T13:12:05;3.77;;;2.90;;
73023;SDS011;61199;47.526;8.538;2023-05-02T13:14:31;3.07;;;2.50;;
73023;SDS011;61199;47.526;8.538;2023-05-02T13:16:58;3.43;;;2.97;;
73023;SDS011;61199;47.526;8.538;2023-05-02T13:19:24;3.80;;;2.57;;
73023;SDS011;61199;47.526;8.538;2023-05-02T13:21:54;3.63;;;2.60;;
73023;SDS011;61199;47.526;8.538;2023-05-02T13:24:20;3.37;;;2.40;;
73023;SDS011;61199;47.526;8.538;2023-05-02T13:26:47;3.73;;;2.83;;
73023;SDS011;61199;47.526;8.538;2023-05-02T13:29:13;10.07;;;2.80;;
73023;SDS011;61199;47.526;8.538;2023-05-02T13:31:39;3.80;;;3.07;;
73023;SDS011;61199;47.526;8.538;2023-05-02T13:34:06;3.60;;;2.27;;
73023;SDS011;61199;47.526;8.538;2023-05-02T13:36:32;4.63;;;2.20;;
73023;SDS011;61199;47.526;8.538;2023-05-02T13:38:58;2.87;;;2.33;;
73023;SDS011;61199;47.526;8.538;2023-05-02T13:41:25;8.70;;;2.17;;
73023;SDS011;61199;47.526;8.538;2023-05-02T13:43:51;3.60;;;2.00;;
73023;SDS011;61199;47.526;8.538;2023-05-02T13:46:18;2.90;;;2.07;;
73023;SDS011;61199;47.526;8.538;2023-05-02T13:48:45;2.03;;;1.93;;
73023;SDS011;61199;47.526;8.538;2023-05-02T13:51:11;2.50;;;1.90;;
73023;SDS011;61199;47.526;8.538;2023-05-02T13:53:38;3.13;;;2.17;;
73023;SDS011;61199;47.526;8.538;2023-05-02T13:56:04;3.10;;;2.20;;
73023;SDS011;61199;47.526;8.538;2023-05-02T13:58:31;3.07;;;1.90;;
73023;SDS011;61199;47.526;8.538;2023-05-02T14:00:57;3.40;;;2.30;;
73023;SDS011;61199;47.526;8.538;2023-05-02T14:03:23;3.17;;;1.90;;
73023;SDS011;61199;47.526;8.538;2023-05-02T14:05:50;2.40;;;1.90;;
73023;SDS011;61199;47.526;8.538;2023-05-02T14:08:17;2.27;;;2.13;;
73023;SDS011;61199;47.526;8.538;2023-05-02T14:10:44;5.63;;;2.60;;
73023;SDS011;61199;47.526;8.538;2023-05-02T14:13:10;6.13;;;2.57;;
73023;SDS011;61199;47.526;8.538;2023-05-02T14:15:36;4.40;;;2.53;;
73023;SDS011;61199;47.526;8.538;2023-05-02T14:18:03;4.77;;;2.90;;
73023;SDS011;61199;47.526;8.538;2023-05-02T14:20:29;3.63;;;3.00;;
73023;SDS011;61199;47.526;8.538;2023-05-02T14:22:56;5.77;;;3.10;;
73023;SDS011;61199;47.526;8.538;2023-05-02T14:25:22;5.97;;;3.30;;
73023;SDS011;61199;47.526;8.538;2023-05-02T14:27:48;3.67;;;2.80;;
73023;SDS011;61199;47.526;8.538;2023-05-02T14:30:15;4.70;;;3.00;;
73023;SDS011;61199;47.526;8.538;2023-05-02T14:32:41;4.30;;;2.80;;
73023;SDS011;61199;47.526;8.538;2023-05-02T14:35:08;3.50;;;2.77;;
73023;SDS011;61199;47.526;8.538;2023-05-02T14:37:35;4.80;;;3.17;;
73023;SDS011;61199;47.526;8.538;2023-05-02T14:40:01;6.30;;;3.13;;
73023;SDS011;61199;47.526;8.538;2023-05-02T14:42:28;4.40;;;2.83;;
73023;SDS011;61199;47.526;8.538;2023-05-02T14:44:55;4.03;;;3.00;;
73023;SDS011;61199;47.526;8.538;2023-05-02T14:47:26;5.73;;;3.33;;
73023;SDS011;61199;47.526;8.538;2023-05-02T14:49:56;4.50;;;2.43;;
73023;SDS011;61199;47.526;8.538;2023-05-02T14:52:22;4.60;;;2.87;;
73023;SDS011;61199;47.526;8.538;2023-05-02T14:54:49;5.97;;;2.70;;
73023;SDS011;61199;47.526;8.538;2023-05-02T14:57:15;3.00;;;2.37;;
73023;SDS011;61199;47.526;8.538;2023-05-02T14:59:42;4.63;;;3.03;;
73023;SDS011;61199;47.526;8.538;2023-05-02T15:02:08;7.00;;;2.63;;
73023;SDS011;61199;47.526;8.538;2023-05-02T15:04:35;4.87;;;3.03;;
73023;SDS011;61199;47.526;8.538;2023-05-02T15:07:02;6.00;;;2.97;;
73023;SDS011;61199;47.526;8.538;2023-05-02T15:09:29;4.63;;;3.03;;
73023;SDS011;61199;47.526;8.538;2023-05-02T15:11:55;3.67;;;2.83;;
73023;SDS011;61199;47.526;8.538;2023-05-02T15:14:22;4.23;;;3.10;;
73023;SDS011;61199;47.526;8.538;2023-05-02T15:16:48;3.40;;;2.97;;
73023;SDS011;61199;47.526;8.538;2023-05-02T15:19:15;4.60;;;2.90;;
73023;SDS011;61199;47.526;8.538;2023-05-02T15:21:41;6.03;;;3.00;;
73023;SDS011;61199;47.526;8.538;2023-05-02T15:24:08;3.50;;;2.83;;